AAL541 KMCO-KJFK
Flight info
| Callsign | AAL541 |
|---|---|
| Flight time | N/A |
| Altitude | 37000 |
| Route | FATHE4 VIYAP Q87 JROSS JOHAR Q109 DFENC SAWED Q108 SIE CAMRN5 |
| Aircraft | B77W/H-SDE1E2E3FGHIJ2J3J4J5M1RWXY/LB1D1 |
Departure
| Time | 2026-05-05 04:22 |
|---|---|
| Airport | Orlando International Airport (KMCO) |
Arrival
| Time | N/A |
|---|---|
| Airport | John F. Kennedy International Airport (KJFK) |
| Time | Latitude | Longitude | Altitude | Speed | Heading |
|---|---|---|---|---|---|
| 2026-05-05 04:12 | 28.42579 | -81.29961 | 108 ft | 0 kts | 277° |
| 2026-05-05 04:16 | 28.42578 | -81.29952 | 108 ft | 4 kts | 281° |
| 2026-05-05 04:17 | 28.42569 | -81.29924 | 106 ft | 4 kts | 300° |
| 2026-05-05 04:17 | 28.42557 | -81.29901 | 106 ft | 4 kts | 310° |
| 2026-05-05 04:17 | 28.42538 | -81.29887 | 106 ft | 4 kts | 6° |
| 2026-05-05 04:17 | 28.42513 | -81.29896 | 107 ft | 4 kts | 30° |
| 2026-05-05 04:18 | 28.42490 | -81.29912 | 105 ft | 3 kts | 34° |
| 2026-05-05 04:18 | 28.42488 | -81.29914 | 105 ft | 0 kts | 33° |
| 2026-05-05 04:19 | 28.42539 | -81.29888 | 108 ft | 18 kts | 21° |
| 2026-05-05 04:19 | 28.42576 | -81.29808 | 108 ft | 11 kts | 121° |
| 2026-05-05 04:19 | 28.42415 | -81.29791 | 107 ft | 41 kts | 180° |
| 2026-05-05 04:20 | 28.42085 | -81.29789 | 107 ft | 48 kts | 179° |
| 2026-05-05 04:20 | 28.41766 | -81.29786 | 107 ft | 45 kts | 179° |
| 2026-05-05 04:20 | 28.41400 | -81.29782 | 107 ft | 60 kts | 179° |
| 2026-05-05 04:20 | 28.41012 | -81.29777 | 107 ft | 39 kts | 179° |
| 2026-05-05 04:21 | 28.40821 | -81.29712 | 107 ft | 29 kts | 104° |
| 2026-05-05 04:21 | 28.40895 | -81.29559 | 104 ft | 23 kts | 4° |
| 2026-05-05 04:21 | 28.41212 | -81.29563 | 106 ft | 88 kts | 359° |
| 2026-05-05 04:21 | 28.42222 | -81.29575 | 184 ft | 195 kts | 359° |
| 2026-05-05 04:22 | 28.43601 | -81.29625 | 1562 ft | 204 kts | 3° |
| 2026-05-05 04:22 | 28.45095 | -81.29481 | 2304 ft | 226 kts | 24° |
| 2026-05-05 04:22 | 28.46536 | -81.28583 | 2774 ft | 244 kts | 35° |
| 2026-05-05 04:22 | 28.48037 | -81.27568 | 3648 ft | 256 kts | 31° |
| 2026-05-05 04:23 | 28.49613 | -81.26536 | 4587 ft | 267 kts | 30° |
| 2026-05-05 04:23 | 28.51255 | -81.25516 | 5506 ft | 273 kts | 21° |
| 2026-05-05 04:23 | 28.53136 | -81.25131 | 6300 ft | 277 kts | 360° |
| 2026-05-05 04:23 | 28.55087 | -81.25065 | 6882 ft | 282 kts | 359° |
| 2026-05-05 04:24 | 28.57060 | -81.25105 | 7005 ft | 286 kts | 355° |
| 2026-05-05 04:24 | 28.59045 | -81.25261 | 7000 ft | 284 kts | 351° |
| 2026-05-05 04:24 | 28.60991 | -81.25575 | 7001 ft | 281 kts | 349° |
| 2026-05-05 04:25 | 28.64841 | -81.26203 | 7616 ft | 282 kts | 351° |
| 2026-05-05 04:25 | 28.66799 | -81.26476 | 8657 ft | 285 kts | 351° |
| 2026-05-05 04:25 | 28.68776 | -81.26747 | 9722 ft | 288 kts | 351° |
| 2026-05-05 04:25 | 28.70782 | -81.27022 | 10589 ft | 297 kts | 351° |
| 2026-05-05 04:26 | 28.72892 | -81.27312 | 10983 ft | 324 kts | 351° |
| 2026-05-05 04:26 | 28.75270 | -81.27639 | 11212 ft | 355 kts | 351° |
| 2026-05-05 04:26 | 28.77784 | -81.27982 | 11635 ft | 377 kts | 351° |
| 2026-05-05 04:26 | 28.80426 | -81.28341 | 12440 ft | 387 kts | 352° |
| 2026-05-05 04:27 | 28.83122 | -81.28708 | 13411 ft | 393 kts | 352° |
| 2026-05-05 04:27 | 28.89387 | -81.29344 | 15517 ft | 403 kts | 353° |
| 2026-05-05 04:27 | 29.00792 | -81.30280 | 19149 ft | 418 kts | 350° |
| 2026-05-05 04:27 | 29.12549 | -81.31595 | 22347 ft | 432 kts | 350° |
| 2026-05-05 04:28 | 29.24787 | -81.32280 | 24999 ft | 447 kts | 351° |
| 2026-05-05 04:28 | 29.37343 | -81.33008 | 27454 ft | 457 kts | 350° |
| 2026-05-05 04:28 | 29.49864 | -81.33767 | 29484 ft | 468 kts | 349° |
| 2026-05-05 04:28 | 29.62956 | -81.34553 | 31491 ft | 467 kts | 349° |
| 2026-05-05 04:29 | 29.75809 | -81.33412 | 33916 ft | 475 kts | 10° |